地図

経路データ

SID SEASON NUMBER BASIN SUBBASIN NAME ISO_TIME NATURE LAT LON WMO_WIND WMO_PRES WMO_AGENCY TRACK_TYPE DIST2LAND LANDFALL IFLAG USA_AGENCY USA_ATCF_ID USA_LAT USA_LON USA_RECORD USA_STATUS USA_WIND USA_PRES USA_SSHS USA_R34_NE USA_R34_SE USA_R34_SW USA_R34_NW USA_R50_NE USA_R50_SE USA_R50_SW USA_R50_NW USA_R64_NE USA_R64_SE USA_R64_SW USA_R64_NW USA_POCI USA_ROCI USA_RMW USA_EYE TOKYO_LAT TOKYO_LON TOKYO_GRADE TOKYO_WIND TOKYO_PRES TOKYO_R50_DIR TOKYO_R50_LONG TOKYO_R50_SHORT TOKYO_R30_DIR TOKYO_R30_LONG TOKYO_R30_SHORT TOKYO_LAND CMA_LAT CMA_LON CMA_CAT CMA_WIND CMA_PRES HKO_LAT HKO_LON HKO_CAT HKO_WIND HKO_PRES NEWDELHI_LAT NEWDELHI_LON NEWDELHI_GRADE NEWDELHI_WIND NEWDELHI_PRES NEWDELHI_CI NEWDELHI_DP NEWDELHI_POCI REUNION_LAT REUNION_LON REUNION_TYPE REUNION_WIND REUNION_PRES REUNION_TNUM REUNION_CI REUNION_RMW REUNION_R34_NE REUNION_R34_SE REUNION_R34_SW REUNION_R34_NW REUNION_R50_NE REUNION_R50_SE REUNION_R50_SW REUNION_R50_NW REUNION_R64_NE REUNION_R64_SE REUNION_R64_SW REUNION_R64_NW BOM_LAT BOM_LON BOM_TYPE BOM_WIND BOM_PRES BOM_TNUM BOM_CI BOM_RMW BOM_R34_NE BOM_R34_SE BOM_R34_SW BOM_R34_NW BOM_R50_NE BOM_R50_SE BOM_R50_SW BOM_R50_NW BOM_R64_NE BOM_R64_SE BOM_R64_SW BOM_R64_NW BOM_ROCI BOM_POCI BOM_EYE BOM_POS_METHOD BOM_PRES_METHOD NADI_LAT NADI_LON NADI_CAT NADI_WIND NADI_PRES WELLINGTON_LAT WELLINGTON_LON WELLINGTON_WIND WELLINGTON_PRES DS824_LAT DS824_LON DS824_STAGE DS824_WIND DS824_PRES TD9636_LAT TD9636_LON TD9636_STAGE TD9636_WIND TD9636_PRES TD9635_LAT TD9635_LON TD9635_WIND TD9635_PRES TD9635_ROCI NEUMANN_LAT NEUMANN_LON NEUMANN_CLASS NEUMANN_WIND NEUMANN_PRES MLC_LAT MLC_LON MLC_CLASS MLC_WIND MLC_PRES USA_GUST BOM_GUST BOM_GUST_PER REUNION_GUST REUNION_GUST_PER USA_SEAHGT USA_SEARAD_NE USA_SEARAD_SE USA_SEARAD_SW USA_SEARAD_NW STORM_SPEED STORM_DIR
1894205N22088 1894 31 NI BB NOT_NAMED 1894-07-24 00:00:00 TS 22.4000 88.4000 main 0 0 _________O____ -1 22.4000 88.4000 TC 45 2 289
1894205N22088 1894 31 NI BB NOT_NAMED 1894-07-24 03:00:00 TS 22.4400 88.2750 main 0 0 _________PO___ -1 22.4600 88.2126 TC 45 22.4000 88.4000 3 3 283
1894205N22088 1894 31 NI BB NOT_NAMED 1894-07-24 06:00:00 TS 22.4739 88.0638 main 0 0 _________OP___ -1 22.5000 88.0000 TC 45 22.4348 88.1596 3 4 277
1894205N22088 1894 31 NI BB NOT_NAMED 1894-07-24 09:00:00 TS 22.4895 87.8251 main 0 0 _________PP___ -1 22.5075 87.7500 TC 45 22.4655 87.9252 3 4 273
1894205N22088 1894 31 NI BB NOT_NAMED 1894-07-24 12:00:00 TS 22.4942 87.6016 main 0 0 _________OP___ -1 22.5000 87.5000 TC 45 22.4885 87.7033 3 4 272
1894205N22088 1894 31 NI BB NOT_NAMED 1894-07-24 15:00:00 TS 22.5000 87.3963 main 0 0 _________PO___ -1 22.4999 87.2925 TC 45 22.5000 87.5000 3 4 271
1894205N22088 1894 31 NI BB NOT_NAMED 1894-07-24 18:00:00 TS 22.4993 87.2085 main 0 0 _________OP___ -1 22.5000 87.1000 TC 45 22.4987 87.3170 3 3 269
1894205N22088 1894 31 NI BB NOT_NAMED 1894-07-24 21:00:00 TS 22.4921 87.0298 main 0 0 _________PP___ -1 22.4924 86.9224 TC 45 22.4919 87.1372 3 4 269
1894205N22088 1894 31 NI BB NOT_NAMED 1894-07-25 00:00:00 TS 22.4946 86.8194 main 0 0 _________OP___ -1 22.5000 86.7000 TC 45 22.4892 86.9388 3 5 274
1894205N22088 1894 31 NI BB NOT_NAMED 1894-07-25 03:00:00 TS 22.5213 86.5363 main 0 0 _________PO___ -1 22.5425 86.3725 TC 45 22.5000 86.7000 3 6 277
1894205N22088 1894 31 NI BB NOT_NAMED 1894-07-25 06:00:00 TS 22.5618 86.1945 main 0 0 _________OP___ -1 22.6000 86.0000 TC 45 22.5237 86.3890 3 6 277
1894205N22088 1894 31 NI BB NOT_NAMED 1894-07-25 09:00:00 TS 22.6026 85.8436 main 0 0 _________PP___ -1 22.6424 85.6499 TC 45 22.5628 86.0373 3 7 279
1894205N22088 1894 31 NI BB NOT_NAMED 1894-07-25 12:00:00 TS 22.6602 85.4835 main 0 0 _________OP___ -1 22.7000 85.3000 TC 45 22.6205 85.6670 3 7 282
1894205N22088 1894 31 NI BB NOT_NAMED 1894-07-25 15:00:00 TS 22.7425 85.1212 main 0 0 _________PO___ -1 22.7850 84.9425 TC 41 22.7000 85.3000 3 7 287
1894205N22088 1894 31 NI BB NOT_NAMED 1894-07-25 18:00:00 TS 22.8515 84.7880 main 0 0 _________OP___ -1 22.9000 84.6000 TC 37 22.8030 84.9759 3 6 292
1894205N22088 1894 31 NI BB NOT_NAMED 1894-07-25 21:00:00 TS 22.9847 84.4787 main 0 0 _________PP___ -1 23.0424 84.2999 TC 33 22.9270 84.6575 3 6 296
1894205N22088 1894 31 NI BB NOT_NAMED 1894-07-26 00:00:00 TS 23.1312 84.1676 main 0 0 _________OP___ -1 23.2000 84.0000 TC 30 23.0624 84.3352 3 7 296
1894205N22088 1894 31 NI BB NOT_NAMED 1894-07-26 03:00:00 TS 23.2787 83.8325 main 0 0 _________PO___ -1 23.3574 83.6650 TC 30 23.2000 84.0000 1 7 294
1894205N22088 1894 31 NI BB NOT_NAMED 1894-07-26 06:00:00 TS 23.4166 83.4616 main 0 0 _________OP___ -1 23.5000 83.3000 TC 30 23.3333 83.6232 1 8 290
1894205N22088 1894 31 NI BB NOT_NAMED 1894-07-26 09:00:00 TS 23.5364 83.0601 main 0 0 _________PP___ -1 23.6076 82.8849 TC 30 23.4652 83.2352 1 8 288
1894205N22088 1894 31 NI BB NOT_NAMED 1894-07-26 12:00:00 TS 23.6448 82.6773 main 0 0 _________OP___ -1 23.7000 82.5000 TC 30 23.5895 82.8545 1 7 289
1894205N22088 1894 31 NI BB NOT_NAMED 1894-07-26 15:00:00 TS 23.7536 82.3675 main 0 0 _________PO___ -1 23.8073 82.2349 TC 30 23.7000 82.5000 1 6 290
1894205N22088 1894 31 NI BB NOT_NAMED 1894-07-26 18:00:00 TS 23.8385 82.1060 main 0 0 _________OP___ -1 23.9000 82.0000 TC 30 23.7924 82.1855 1 5 287
1894205N22088 1894 31 NI BB NOT_NAMED 1894-07-26 21:00:00 TS 23.9061 81.8300 main 0 0 _________PP___ -1 23.9602 81.7175 TC 30 23.8700 81.9049 1 5 284
1894205N22088 1894 31 NI BB NOT_NAMED 1894-07-27 00:00:00 TS 23.9584 81.5646 main 0 0 _________OP___ -1 24.0000 81.4000 TC 30 23.9375 81.6469 1 4 283
1894205N22088 1894 31 NI BB NOT_NAMED 1894-07-27 03:00:00 NR 24.0000 81.4000 main 0 __________O___ -1 TC 24.0000 81.4000 1 3 286

IBTrACS Databaseについて

本データベースは、米国NOAAが公開する1842年以降の世界の熱帯低気圧のベストトラックデータアーカイブInternational Best Track Archive for Climate Stewardship (IBTrACS)を、ウェブで閲覧しやすい形式に変換したものです。

最終更新日:2021-12-03